Time;durP1;ratioP1;P1;durP2;ratioP2;P2;SDS_P1;SDS_P2;PMS_P1;PMS_P2;Temp;Humidity;BMP_temperature;BMP_pressure;BME280_temperature;BME280_humidity;BME280_pressure;Samples;Min_cycle;Max_cycle;Signal;HPM_P1;HPM_P2
2023/05/26 00:02:10;;;;;;;9.77;7.23;;;13.10;99.90;;;;;;5132202;27;20178;-31
2023/05/26 00:04:36;;;;;;;12.70;7.60;;;13.20;99.90;;;;;;5131591;27;20231;-31
2023/05/26 00:07:02;;;;;;;11.70;8.00;;;13.20;99.90;;;;;;5113840;27;20198;-31
2023/05/26 00:09:27;;;;;;;9.73;7.50;;;13.20;99.90;;;;;;5113915;27;20182;-32
2023/05/26 00:11:53;;;;;;;11.00;7.27;;;13.20;99.90;;;;;;5096261;27;20252;-32
2023/05/26 00:14:19;;;;;;;11.77;7.83;;;13.20;99.90;;;;;;5113153;27;20241;-31
2023/05/26 00:16:45;;;;;;;10.27;7.23;;;13.10;99.90;;;;;;5113905;27;20178;-31
2023/05/26 00:19:12;;;;;;;10.43;7.53;;;13.10;99.90;;;;;;5096582;27;20201;-30
2023/05/26 00:21:39;;;;;;;13.03;7.07;;;13.10;99.90;;;;;;5113467;28;20197;-30
2023/05/26 00:24:05;;;;;;;10.47;7.60;;;13.10;99.90;;;;;;5113619;27;20691;-32
2023/05/26 00:26:31;;;;;;;9.83;7.47;;;13.00;99.90;;;;;;5096566;28;20190;-31
2023/05/26 00:28:57;;;;;;;9.87;7.57;;;13.00;99.90;;;;;;5099660;28;20214;-31
2023/05/26 00:31:23;;;;;;;9.27;7.73;;;12.90;99.90;;;;;;5119437;27;20202;-30
2023/05/26 00:33:50;;;;;;;13.53;8.03;;;12.90;99.90;;;;;;5096479;28;20220;-31
2023/05/26 00:36:16;;;;;;;10.90;8.20;;;12.80;99.90;;;;;;5113442;28;20178;-31
2023/05/26 00:38:42;;;;;;;12.57;7.97;;;12.80;99.90;;;;;;5113466;28;20231;-30
2023/05/26 00:41:08;;;;;;;11.37;7.57;;;12.80;99.90;;;;;;5131852;28;20181;-31
2023/05/26 00:43:34;;;;;;;9.30;7.60;;;12.80;99.90;;;;;;5113160;28;20263;-31
2023/05/26 00:46:00;;;;;;;9.90;7.63;;;12.70;99.90;;;;;;5113074;28;20182;-32
2023/05/26 00:48:26;;;;;;;11.23;8.10;;;12.70;99.90;;;;;;5119034;27;20178;-32
2023/05/26 00:50:52;;;;;;;11.73;7.53;;;12.70;99.90;;;;;;5116745;27;20178;-31
2023/05/26 00:53:18;;;;;;;11.40;8.40;;;12.70;99.90;;;;;;5133673;27;20215;-31
2023/05/26 00:55:46;;;;;;;12.23;7.60;;;12.80;99.90;;;;;;5133804;27;20198;-31
2023/05/26 00:58:12;;;;;;;10.63;7.80;;;12.80;99.90;;;;;;5108429;28;20177;-32
2023/05/26 01:00:38;;;;;;;9.53;7.77;;;12.80;99.90;;;;;;5092270;28;20214;-31
2023/05/26 01:03:04;;;;;;;10.70;8.10;;;12.80;99.90;;;;;;5093237;28;20248;-31
2023/05/26 01:05:30;;;;;;;10.57;7.93;;;12.80;99.90;;;;;;5092730;28;20180;-31
2023/05/26 01:07:56;;;;;;;9.70;7.90;;;12.90;99.90;;;;;;5093111;28;20178;-32
2023/05/26 01:10:23;;;;;;;11.30;7.60;;;12.90;99.90;;;;;;5115884;28;20178;-31
2023/05/26 01:12:58;;;;;;;9.50;7.90;;;12.90;99.90;;;;;;5094955;28;20243;-31
2023/05/26 01:15:35;;;;;;;12.93;8.03;;;12.90;99.90;;;;;;5112705;28;20417;-32
2023/05/26 01:18:24;;;;;;;12.60;7.50;;;12.90;99.90;;;;;;5113037;28;20181;-33
2023/05/26 01:20:59;;;;;;;13.60;8.23;;;12.90;99.90;;;;;;5131021;28;20668;-33
2023/05/26 01:23:47;;;;;;;10.63;7.50;;;12.90;99.90;;;;;;5095783;28;20204;-33
2023/05/26 01:26:37;;;;;;;8.47;7.27;;;12.90;99.90;;;;;;5099842;27;20179;-32
2023/05/26 01:29:14;;;;;;;12.40;7.70;;;12.90;99.90;;;;;;5102155;28;20217;-33
2023/05/26 01:31:40;;;;;;;10.83;8.10;;;12.90;99.90;;;;;;5096446;28;20187;-33
2023/05/26 01:34:07;;;;;;;10.20;7.53;;;12.90;99.90;;;;;;5096273;28;20254;-33
2023/05/26 01:36:37;;;;;;;10.30;7.17;;;12.90;99.90;;;;;;5096056;28;20185;-33
2023/05/26 01:39:05;;;;;;;10.13;7.90;;;12.90;99.90;;;;;;5114606;28;20194;-33
2023/05/26 01:41:51;;;;;;;10.83;7.37;;;12.90;99.90;;;;;;5110196;27;20190;-33
2023/05/26 01:44:32;;;;;;;10.67;7.30;;;12.90;99.90;;;;;;5099199;27;20214;-32
2023/05/26 01:47:00;;;;;;;9.10;6.90;;;12.80;99.90;;;;;;5135294;27;20213;-33
2023/05/26 01:49:28;;;;;;;11.73;7.63;;;12.80;99.90;;;;;;5087998;27;20185;-32
2023/05/26 01:52:02;;;;;;;9.77;7.67;;;12.80;99.90;;;;;;5116459;27;20180;-33
2023/05/26 01:54:39;;;;;;;10.13;7.93;;;12.80;99.90;;;;;;5115846;27;20217;-33
2023/05/26 01:57:07;;;;;;;10.77;7.90;;;12.70;99.90;;;;;;5115627;27;20179;-33
2023/05/26 01:59:33;;;;;;;11.47;7.70;;;12.70;99.90;;;;;;5113362;27;20269;-33
2023/05/26 02:01:59;;;;;;;10.40;7.30;;;12.70;99.90;;;;;;5109264;27;20180;-33
2023/05/26 02:04:25;;;;;;;10.20;8.00;;;12.70;99.90;;;;;;5132058;27;20200;-32
2023/05/26 02:06:52;;;;;;;9.87;7.40;;;12.60;99.90;;;;;;5114098;27;20253;-33
2023/05/26 02:09:18;;;;;;;8.77;7.03;;;12.60;99.90;;;;;;5115935;27;20191;-32
2023/05/26 02:11:44;;;;;;;9.20;7.47;;;12.60;99.90;;;;;;5098767;27;20220;-33
2023/05/26 02:14:10;;;;;;;10.93;7.37;;;12.50;99.90;;;;;;5115224;27;20287;-33
2023/05/26 02:16:37;;;;;;;9.53;7.80;;;12.50;99.90;;;;;;5123854;27;20220;-33
2023/05/26 02:19:03;;;;;;;10.00;6.83;;;12.40;99.90;;;;;;5114822;27;20200;-33
2023/05/26 02:21:34;;;;;;;10.73;7.20;;;12.40;99.90;;;;;;5115543;27;20183;-32
2023/05/26 02:24:00;;;;;;;10.07;7.37;;;12.40;99.90;;;;;;5094933;28;20207;-32
2023/05/26 02:26:26;;;;;;;9.03;7.13;;;12.30;99.90;;;;;;5112229;27;20192;-32
2023/05/26 02:28:52;;;;;;;10.87;7.40;;;12.20;99.90;;;;;;5102646;28;20253;-33
2023/05/26 02:31:18;;;;;;;9.87;7.37;;;12.10;99.90;;;;;;5102668;27;20286;-33
2023/05/26 02:33:43;;;;;;;9.67;7.57;;;12.10;99.90;;;;;;5114674;27;20323;-33
2023/05/26 02:36:11;;;;;;;12.17;7.63;;;12.10;99.90;;;;;;5131903;27;20175;-32
2023/05/26 02:38:36;;;;;;;9.17;7.33;;;12.00;99.90;;;;;;5115144;27;20193;-32
2023/05/26 02:41:02;;;;;;;9.67;7.83;;;12.00;99.90;;;;;;5094544;28;20183;-33
2023/05/26 02:43:28;;;;;;;9.60;7.87;;;11.90;99.90;;;;;;5113243;27;20206;-32
2023/05/26 02:45:54;;;;;;;11.40;7.60;;;11.90;99.90;;;;;;5114147;27;20213;-33
2023/05/26 02:48:19;;;;;;;12.43;7.27;;;11.90;99.90;;;;;;5094548;28;20217;-33
2023/05/26 02:50:45;;;;;;;9.83;8.10;;;11.90;99.90;;;;;;5114788;27;20175;-33
2023/05/26 02:53:11;;;;;;;10.27;7.70;;;12.00;99.90;;;;;;5114702;27;20248;-33
2023/05/26 02:55:38;;;;;;;10.13;7.20;;;11.90;99.90;;;;;;5114386;27;20175;-32
2023/05/26 02:58:04;;;;;;;7.80;6.83;;;11.90;99.90;;;;;;5114828;27;20177;-32
2023/05/26 03:00:30;;;;;;;10.10;7.70;;;11.90;99.90;;;;;;5132878;27;20188;-33
2023/05/26 03:02:55;;;;;;;9.37;7.77;;;11.80;99.90;;;;;;5114835;27;20177;-33
2023/05/26 03:05:21;;;;;;;12.07;7.43;;;11.80;99.90;;;;;;5112278;27;20181;-32
2023/05/26 03:07:47;;;;;;;9.60;7.70;;;11.80;99.90;;;;;;5137899;27;20167;-32
2023/05/26 03:10:13;;;;;;;8.47;7.57;;;11.80;99.90;;;;;;5101244;27;20194;-33
2023/05/26 03:12:40;;;;;;;9.97;7.83;;;11.80;99.90;;;;;;5114346;27;20269;-32
2023/05/26 03:15:06;;;;;;;9.57;7.07;;;11.80;99.90;;;;;;5114080;27;20195;-34
2023/05/26 03:17:32;;;;;;;10.03;7.63;;;11.90;99.90;;;;;;5105481;27;20652;-33
2023/05/26 03:19:58;;;;;;;9.27;7.37;;;11.90;99.90;;;;;;5114628;27;20184;-33
2023/05/26 03:22:25;;;;;;;9.90;7.67;;;11.90;99.90;;;;;;5114192;27;20191;-32
2023/05/26 03:24:51;;;;;;;10.60;7.83;;;11.90;99.90;;;;;;5093699;28;20200;-32
2023/05/26 03:27:22;;;;;;;9.77;6.80;;;11.90;99.90;;;;;;5109283;27;20173;-33
2023/05/26 03:29:48;;;;;;;9.83;7.70;;;11.90;99.90;;;;;;5088826;27;20176;-33
2023/05/26 03:32:15;;;;;;;8.57;6.90;;;11.90;99.90;;;;;;5097134;27;20183;-34
2023/05/26 03:34:40;;;;;;;9.97;7.13;;;11.90;99.90;;;;;;5132167;27;20208;-34
2023/05/26 03:37:06;;;;;;;11.27;7.77;;;11.90;99.90;;;;;;5114105;27;20201;-33
2023/05/26 03:39:33;;;;;;;12.73;7.40;;;11.90;99.90;;;;;;5088530;27;20186;-33
2023/05/26 03:42:00;;;;;;;10.83;7.37;;;11.90;99.90;;;;;;5093286;28;20184;-32
2023/05/26 03:44:28;;;;;;;10.37;7.23;;;11.90;99.90;;;;;;5108196;27;20294;-32
2023/05/26 03:46:54;;;;;;;10.73;7.53;;;11.90;99.90;;;;;;5105945;27;20275;-33
2023/05/26 03:49:20;;;;;;;7.77;6.97;;;11.90;99.90;;;;;;5093366;28;20188;-32
2023/05/26 03:51:46;;;;;;;10.97;7.77;;;12.00;99.90;;;;;;5087365;27;20177;-33
2023/05/26 03:54:12;;;;;;;10.57;7.67;;;12.00;99.90;;;;;;5091505;27;20298;-33
2023/05/26 03:56:38;;;;;;;10.53;6.80;;;12.00;99.90;;;;;;5112850;27;20189;-32
2023/05/26 03:59:04;;;;;;;9.83;6.97;;;12.10;99.90;;;;;;5117840;27;20235;-33
2023/05/26 04:01:30;;;;;;;8.50;7.60;;;12.10;99.90;;;;;;5118214;27;20188;-33
2023/05/26 04:03:56;;;;;;;10.23;7.70;;;12.10;99.90;;;;;;5097161;27;20209;-33
2023/05/26 04:06:23;;;;;;;12.30;7.10;;;12.10;99.90;;;;;;5113558;27;20198;-33
2023/05/26 04:08:49;;;;;;;11.07;7.90;;;12.20;99.90;;;;;;5110440;27;20174;-34
2023/05/26 04:11:17;;;;;;;9.77;7.57;;;12.20;99.90;;;;;;5108463;27;20261;-32
2023/05/26 04:13:45;;;;;;;9.83;7.40;;;12.10;99.90;;;;;;5106467;27;20301;-32
2023/05/26 04:16:17;;;;;;;9.47;7.63;;;12.20;99.90;;;;;;5103890;27;20185;-32
2023/05/26 04:18:43;;;;;;;10.70;7.30;;;12.10;99.90;;;;;;5112357;27;20296;-32
2023/05/26 04:21:09;;;;;;;10.00;7.17;;;12.20;99.90;;;;;;5111915;27;20172;-32
2023/05/26 04:23:36;;;;;;;9.63;7.40;;;12.10;99.90;;;;;;5118094;27;20273;-32
2023/05/26 04:26:03;;;;;;;9.83;7.27;;;12.20;99.90;;;;;;5097489;27;20192;-32
2023/05/26 04:28:38;;;;;;;9.83;7.40;;;12.30;99.90;;;;;;5096579;27;20663;-32
2023/05/26 04:31:40;;;;;;;10.43;7.23;;;12.30;99.90;;;;;;5097717;27;20290;-33
2023/05/26 04:34:12;;;;;;;9.80;7.73;;;12.40;99.90;;;;;;5123018;27;20301;-32
2023/05/26 04:37:17;;;;;;;10.73;8.10;;;12.30;99.90;;;;;;5087432;27;20174;-33
2023/05/26 04:39:43;;;;;;;12.33;7.40;;;12.30;99.90;;;;;;5093927;28;20177;-33
2023/05/26 04:42:09;;;;;;;10.37;7.53;;;12.30;99.90;;;;;;5108504;28;20267;-32
2023/05/26 04:44:37;;;;;;;10.50;7.77;;;12.20;99.90;;;;;;5113078;27;20271;-33
2023/05/26 04:47:08;;;;;;;11.80;8.20;;;12.30;99.90;;;;;;5112967;28;20189;-33
2023/05/26 04:49:35;;;;;;;11.20;7.50;;;12.30;99.90;;;;;;5113239;27;20195;-33
2023/05/26 04:52:01;;;;;;;9.43;7.77;;;12.30;99.90;;;;;;5113004;28;20365;-33
2023/05/26 04:54:27;;;;;;;12.30;8.07;;;12.30;99.90;;;;;;5104321;27;20210;-33
2023/05/26 04:56:54;;;;;;;9.27;7.47;;;12.40;99.90;;;;;;5100182;28;20201;-32
2023/05/26 04:59:23;;;;;;;11.27;8.53;;;12.40;99.90;;;;;;5102013;27;20199;-33
2023/05/26 05:01:49;;;;;;;11.43;8.13;;;12.40;99.90;;;;;;5106505;27;20286;-34
2023/05/26 05:04:28;;;;;;;8.60;7.70;;;12.50;99.90;;;;;;5090326;27;20198;-33
2023/05/26 05:06:56;;;;;;;9.37;7.70;;;12.50;99.90;;;;;;5098240;27;20185;-33
2023/05/26 05:09:22;;;;;;;11.07;8.03;;;12.60;99.90;;;;;;5107471;27;20195;-32
2023/05/26 05:11:48;;;;;;;11.27;7.27;;;12.70;99.90;;;;;;5099705;27;20222;-33
2023/05/26 05:14:14;;;;;;;10.10;7.40;;;12.80;99.90;;;;;;5115252;27;20210;-32
2023/05/26 05:16:41;;;;;;;10.70;7.73;;;12.80;99.90;;;;;;5116546;27;20181;-33
2023/05/26 05:19:08;;;;;;;12.47;7.67;;;12.80;99.90;;;;;;5116736;27;20181;-33
2023/05/26 05:21:40;;;;;;;10.93;7.43;;;12.90;99.90;;;;;;5132252;27;20171;-33
2023/05/26 05:24:06;;;;;;;9.47;7.70;;;13.00;99.90;;;;;;5116383;27;20201;-33
2023/05/26 05:26:32;;;;;;;11.37;7.80;;;13.10;99.90;;;;;;5112862;27;20238;-33
2023/05/26 05:28:59;;;;;;;11.57;8.07;;;13.20;99.90;;;;;;5113894;27;20182;-33
2023/05/26 05:31:32;;;;;;;11.10;7.93;;;13.30;99.90;;;;;;5116056;27;20192;-32
2023/05/26 05:33:57;;;;;;;11.90;7.43;;;13.40;99.90;;;;;;5112702;27;20195;-34
2023/05/26 05:36:23;;;;;;;8.37;7.33;;;13.60;99.90;;;;;;5108335;27;20178;-34
2023/05/26 05:38:52;;;;;;;9.87;7.53;;;13.70;99.90;;;;;;5096339;27;20179;-32
2023/05/26 05:41:19;;;;;;;12.00;7.87;;;13.80;99.90;;;;;;5127150;27;20266;-33
2023/05/26 05:43:45;;;;;;;13.67;8.37;;;13.90;99.90;;;;;;5086432;27;20282;-34
2023/05/26 05:46:11;;;;;;;9.27;7.10;;;14.00;99.90;;;;;;5134236;27;20202;-33
2023/05/26 05:48:53;;;;;;;9.77;7.53;;;14.10;99.90;;;;;;5111437;27;20179;-33
2023/05/26 05:51:26;;;;;;;10.43;7.70;;;14.20;99.90;;;;;;5110418;27;20175;-33
2023/05/26 05:53:52;;;;;;;14.60;7.57;;;14.30;99.90;;;;;;5112383;27;20232;-34
2023/05/26 05:56:18;;;;;;;13.37;7.80;;;14.30;99.90;;;;;;5104214;27;20172;-33
2023/05/26 05:58:46;;;;;;;10.87;7.63;;;14.40;99.90;;;;;;5112005;27;20175;-33
2023/05/26 06:01:14;;;;;;;11.00;7.40;;;14.40;99.90;;;;;;5112864;27;20245;-33
2023/05/26 06:03:39;;;;;;;9.60;7.73;;;14.40;99.90;;;;;;5112640;27;20203;-32
2023/05/26 06:06:05;;;;;;;12.40;7.63;;;14.50;99.90;;;;;;5115843;27;20231;-33
2023/05/26 06:08:31;;;;;;;13.97;7.90;;;14.60;99.90;;;;;;5096084;27;20188;-34
2023/05/26 06:10:57;;;;;;;9.50;7.80;;;14.70;99.90;;;;;;5114769;27;20190;-33
2023/05/26 06:13:24;;;;;;;9.43;7.63;;;14.70;99.90;;;;;;5094880;28;20264;-33
2023/05/26 06:15:49;;;;;;;12.93;7.70;;;14.70;99.90;;;;;;5124858;27;20175;-33
2023/05/26 06:18:17;;;;;;;10.57;7.10;;;14.80;99.90;;;;;;5115523;27;20179;-33
2023/05/26 06:20:42;;;;;;;9.97;6.77;;;14.90;99.90;;;;;;5097315;27;20571;-33
2023/05/26 06:23:08;;;;;;;8.83;7.07;;;15.10;99.90;;;;;;5094741;28;20207;-34
2023/05/26 06:25:36;;;;;;;10.33;7.97;;;15.30;99.90;;;;;;5113452;27;20175;-34
2023/05/26 06:28:04;;;;;;;9.70;6.90;;;15.40;99.90;;;;;;5115759;27;20235;-33
2023/05/26 06:30:30;;;;;;;10.60;7.00;;;15.60;99.90;;;;;;5081455;27;20187;-33
2023/05/26 06:33:09;;;;;;;8.43;7.07;;;15.80;99.90;;;;;;5093505;28;20208;-33
2023/05/26 06:35:36;;;;;;;8.63;6.00;;;16.00;99.90;;;;;;5113246;27;20183;-33
2023/05/26 06:38:03;;;;;;;8.00;6.60;;;16.20;99.90;;;;;;5115482;27;20179;-33
2023/05/26 06:40:28;;;;;;;10.83;6.60;;;16.30;99.90;;;;;;5115982;27;20183;-34
2023/05/26 06:42:54;;;;;;;12.97;6.80;;;16.40;99.90;;;;;;5102221;28;20195;-33
2023/05/26 06:45:21;;;;;;;12.73;8.03;;;16.50;99.90;;;;;;5110868;27;20175;-34
2023/05/26 06:47:49;;;;;;;12.07;7.23;;;16.50;99.90;;;;;;5115316;27;20195;-33
2023/05/26 06:50:16;;;;;;;7.57;6.67;;;16.50;99.90;;;;;;5115025;27;20179;-33
2023/05/26 06:52:45;;;;;;;9.63;6.37;;;16.70;99.90;;;;;;5106807;27;20224;-33
2023/05/26 06:55:10;;;;;;;9.88;6.78;;;16.90;99.90;;;;;;5097680;27;20199;-33
2023/05/26 06:57:37;;;;;;;10.30;7.07;;;17.00;99.90;;;;;;5095307;27;20179;-33
2023/05/26 07:00:05;;;;;;;11.63;7.50;;;17.00;99.90;;;;;;5087853;28;20179;-33
2023/05/26 07:02:31;;;;;;;8.27;6.80;;;16.90;99.90;;;;;;5111872;27;20186;-33
2023/05/26 07:05:17;;;;;;;9.97;6.87;;;17.00;99.90;;;;;;5132909;27;20190;-33
2023/05/26 07:07:44;;;;;;;8.32;6.68;;;17.20;99.90;;;;;;5131837;27;20171;-32
2023/05/26 07:10:10;;;;;;;8.23;6.45;;;17.40;99.90;;;;;;5114584;27;20179;-33
2023/05/26 07:12:37;;;;;;;13.57;6.38;;;17.60;99.90;;;;;;5095716;27;20180;-33
2023/05/26 07:15:17;;;;;;;10.65;6.82;;;17.80;99.90;;;;;;5106987;27;20277;-33
2023/05/26 07:17:43;;;;;;;9.70;6.90;;;17.90;99.90;;;;;;5104395;27;20187;-33
2023/05/26 07:20:10;;;;;;;11.00;6.53;;;18.00;99.90;;;;;;5107387;27;20183;-33
2023/05/26 07:22:36;;;;;;;11.30;7.13;;;18.20;99.90;;;;;;5105841;27;20187;-34
2023/05/26 07:25:10;;;;;;;9.63;6.60;;;18.20;99.90;;;;;;5108515;27;20187;-34
2023/05/26 07:27:43;;;;;;;8.25;6.82;;;18.30;99.90;;;;;;5126936;27;20179;-33
2023/05/26 07:30:10;;;;;;;10.35;7.10;;;18.50;99.90;;;;;;5090563;28;20180;-33
2023/05/26 07:32:48;;;;;;;8.35;6.93;;;18.50;99.90;;;;;;5098269;27;20665;-33
2023/05/26 07:35:13;;;;;;;9.60;6.80;;;18.60;99.90;;;;;;5093121;28;20208;-34
2023/05/26 07:37:40;;;;;;;10.10;6.68;;;18.80;99.90;;;;;;5112394;27;20180;-33
2023/05/26 07:40:06;;;;;;;12.27;7.50;;;18.80;99.90;;;;;;5105697;27;20187;-34
2023/05/26 07:42:33;;;;;;;8.45;7.07;;;18.90;99.90;;;;;;5103238;27;20179;-33
2023/05/26 07:45:00;;;;;;;8.32;5.90;;;18.60;99.90;;;;;;5117766;27;20214;-34
2023/05/26 07:47:29;;;;;;;10.48;6.75;;;18.80;99.90;;;;;;5135968;27;20185;-33
2023/05/26 07:49:55;;;;;;;12.10;7.70;;;18.90;99.90;;;;;;5113225;27;20182;-33
2023/05/26 07:52:21;;;;;;;8.80;6.70;;;18.80;99.90;;;;;;5105251;27;20179;-33
2023/05/26 07:54:47;;;;;;;9.32;6.05;;;18.90;99.90;;;;;;5113475;27;20333;-34
2023/05/26 07:57:12;;;;;;;10.93;7.63;;;19.10;99.90;;;;;;5113734;27;20326;-34
2023/05/26 07:59:38;;;;;;;8.55;6.50;;;19.20;99.90;;;;;;5094750;27;20179;-34
2023/05/26 08:02:04;;;;;;;8.93;6.50;;;19.20;99.90;;;;;;5125252;27;20216;-34
2023/05/26 08:04:30;;;;;;;12.95;6.80;;;19.40;99.90;;;;;;5113885;27;20263;-33
2023/05/26 08:06:56;;;;;;;8.68;7.15;;;19.30;99.90;;;;;;5112854;27;20306;-33
2023/05/26 08:09:21;;;;;;;9.82;6.57;;;19.40;99.90;;;;;;5113201;27;20187;-34
2023/05/26 08:11:47;;;;;;;9.23;6.50;;;19.60;99.90;;;;;;5109565;27;20201;-34
2023/05/26 08:14:13;;;;;;;11.00;7.30;;;19.80;99.90;;;;;;5104580;27;20215;-33
2023/05/26 08:16:39;;;;;;;10.52;7.28;;;19.80;99.90;;;;;;5113296;27;20179;-34
2023/05/26 08:19:05;;;;;;;8.05;6.25;;;19.90;99.90;;;;;;5131750;27;20174;-34
2023/05/26 08:21:31;;;;;;;11.38;6.97;;;20.10;99.90;;;;;;5104880;27;20180;-34
2023/05/26 08:23:57;;;;;;;9.50;6.55;;;20.10;99.90;;;;;;5117645;27;20231;-34
2023/05/26 08:26:22;;;;;;;8.43;6.47;;;20.30;99.90;;;;;;5106114;27;20194;-34
2023/05/26 08:28:48;;;;;;;9.15;6.65;;;20.60;99.90;;;;;;5101727;27;20188;-33
2023/05/26 08:31:14;;;;;;;8.32;7.38;;;20.60;99.90;;;;;;5090831;28;20248;-33
2023/05/26 08:33:40;;;;;;;11.48;7.07;;;20.50;99.90;;;;;;5103581;27;20257;-33
2023/05/26 08:36:06;;;;;;;10.75;5.50;;;20.50;99.90;;;;;;5129239;27;20179;-33
2023/05/26 08:38:31;;;;;;;9.13;6.43;;;20.60;99.90;;;;;;5124522;27;20187;-34
2023/05/26 08:41:03;;;;;;;9.48;6.78;;;20.90;99.90;;;;;;5114655;28;20186;-34
2023/05/26 08:43:46;;;;;;;7.50;6.10;;;21.00;99.90;;;;;;5102611;27;20203;-34
2023/05/26 08:46:12;;;;;;;7.68;6.55;;;21.20;99.90;;;;;;5106531;28;20207;-34
2023/05/26 08:48:42;;;;;;;10.20;7.15;;;21.40;99.90;;;;;;5122364;27;20191;-34
2023/05/26 08:51:09;;;;;;;8.20;6.50;;;21.50;99.90;;;;;;5106957;28;20700;-34
2023/05/26 08:53:36;;;;;;;9.32;6.82;;;21.50;99.90;;;;;;5093272;27;20212;-34
2023/05/26 08:56:03;;;;;;;8.43;6.70;;;21.60;99.90;;;;;;5095978;28;20284;-34
2023/05/26 08:58:31;;;;;;;11.35;7.28;;;21.70;99.90;;;;;;5128063;27;20188;-34
2023/05/26 09:00:58;;;;;;;9.00;6.78;;;21.80;99.90;;;;;;5100784;28;20176;-35
2023/05/26 09:03:24;;;;;;;8.20;6.50;;;21.80;99.90;;;;;;5118579;27;20232;-34
2023/05/26 09:05:50;;;;;;;8.07;6.20;;;21.90;99.90;;;;;;5097896;27;20183;-35
2023/05/26 09:08:16;;;;;;;9.15;6.70;;;22.10;99.90;;;;;;5098316;28;20183;-34
2023/05/26 09:10:42;;;;;;;8.73;6.78;;;22.30;99.90;;;;;;5092345;27;20206;-34
2023/05/26 09:13:10;;;;;;;8.32;6.60;;;22.50;99.90;;;;;;5098998;28;20203;-34
2023/05/26 09:15:37;;;;;;;9.27;6.72;;;22.80;99.90;;;;;;5116282;27;20172;-35
2023/05/26 09:18:03;;;;;;;8.45;5.93;;;23.00;99.90;;;;;;5084472;28;20187;-34
2023/05/26 09:20:29;;;;;;;9.00;5.95;;;23.10;99.90;;;;;;5100382;27;20176;-34
2023/05/26 09:22:57;;;;;;;10.63;7.18;;;23.30;99.90;;;;;;5134414;27;20180;-34
2023/05/26 09:25:35;;;;;;;9.93;7.07;;;23.30;99.90;;;;;;5122550;27;20228;-34
2023/05/26 09:28:10;;;;;;;8.38;5.95;;;23.30;99.90;;;;;;5112826;28;20179;-33
2023/05/26 09:30:40;;;;;;;8.60;6.25;;;23.50;99.90;;;;;;5126196;27;20211;-35
2023/05/26 09:33:09;;;;;;;8.20;6.65;;;23.70;99.90;;;;;;5099779;28;20202;-34
2023/05/26 09:35:40;;;;;;;9.70;6.70;;;23.80;99.90;;;;;;5107672;27;20172;-33
2023/05/26 09:38:10;;;;;;;8.48;7.28;;;23.90;99.90;;;;;;5122168;27;20209;-33
2023/05/26 09:40:45;;;;;;;12.38;7.45;;;23.70;99.90;;;;;;5118760;27;20236;-34
2023/05/26 09:43:12;;;;;;;11.30;6.97;;;23.70;99.90;;;;;;5131449;27;20222;-33
2023/05/26 09:45:40;;;;;;;8.55;6.68;;;23.90;99.90;;;;;;5112433;27;20209;-34
2023/05/26 09:48:10;;;;;;;7.85;6.32;;;24.00;99.90;;;;;;5110452;27;20178;-32
2023/05/26 09:50:38;;;;;;;8.32;6.90;;;24.20;99.90;;;;;;5093184;27;20184;-33
2023/05/26 09:53:05;;;;;;;9.43;6.32;;;24.10;99.90;;;;;;5104144;27;20192;-33
2023/05/26 09:55:33;;;;;;;7.20;6.30;;;24.20;99.90;;;;;;5104901;27;20171;-33
2023/05/26 09:58:05;;;;;;;8.20;6.40;;;24.00;99.90;;;;;;5095899;27;20180;-35
2023/05/26 10:00:34;;;;;;;8.38;6.43;;;24.00;99.90;;;;;;5098127;27;20183;-32
2023/05/26 10:03:06;;;;;;;10.15;6.07;;;23.60;99.90;;;;;;5123650;27;20226;-32
2023/05/26 10:05:36;;;;;;;9.23;6.68;;;23.80;99.90;;;;;;5116338;27;20187;-32
2023/05/26 10:08:05;;;;;;;8.75;6.13;;;23.90;99.90;;;;;;5128580;27;20262;-34
2023/05/26 10:10:33;;;;;;;6.60;5.22;;;24.00;99.90;;;;;;5120709;27;20231;-35
2023/05/26 10:12:59;;;;;;;8.02;5.82;;;24.20;99.90;;;;;;5099451;27;20175;-38
2023/05/26 10:15:26;;;;;;;7.68;5.25;;;24.30;99.90;;;;;;5108860;28;20200;-33
2023/05/26 10:17:53;;;;;;;6.88;5.30;;;24.40;99.90;;;;;;5098752;27;20175;-31
2023/05/26 10:20:20;;;;;;;8.82;5.32;;;24.70;99.90;;;;;;5095049;28;20187;-32
2023/05/26 10:22:58;;;;;;;7.15;4.88;;;24.90;99.90;;;;;;5130595;27;20207;-33
2023/05/26 10:25:49;;;;;;;8.10;5.18;;;25.10;99.90;;;;;;5112030;27;20186;-33
2023/05/26 10:28:42;;;;;;;10.32;5.60;;;25.10;99.90;;;;;;5119466;27;20187;-34
2023/05/26 10:31:11;;;;;;;7.03;4.72;;;25.30;99.90;;;;;;5126290;27;20180;-33
2023/05/26 10:33:43;;;;;;;7.00;5.30;;;25.40;99.90;;;;;;5115183;27;20256;-33
2023/05/26 10:36:13;;;;;;;7.07;5.68;;;25.60;99.90;;;;;;5115026;27;20171;-33
2023/05/26 10:38:47;;;;;;;9.05;5.60;;;25.60;99.90;;;;;;5115502;27;20186;-38
2023/05/26 10:41:36;;;;;;;7.25;5.50;;;25.70;99.90;;;;;;5130940;27;20235;-35
2023/05/26 10:44:03;;;;;;;9.15;5.40;;;25.80;99.90;;;;;;5102304;27;20202;-33
2023/05/26 10:46:37;;;;;;;7.40;5.50;;;25.70;99.90;;;;;;5113158;27;20181;-35
2023/05/26 10:49:03;;;;;;;7.10;5.63;;;25.70;99.90;;;;;;5121955;27;20184;-33
2023/05/26 10:51:32;;;;;;;6.43;5.30;;;25.90;99.90;;;;;;5108418;27;20179;-33
2023/05/26 10:53:58;;;;;;;7.95;5.60;;;25.90;99.90;;;;;;5134750;27;20267;-34
2023/05/26 10:56:40;;;;;;;8.35;6.10;;;26.10;99.90;;;;;;5130594;27;20263;-33
2023/05/26 10:59:06;;;;;;;8.38;5.60;;;26.10;99.90;;;;;;5088081;28;20180;-34
2023/05/26 11:01:32;;;;;;;6.47;5.30;;;26.00;99.90;;;;;;5123487;27;20179;-32
2023/05/26 11:04:09;;;;;;;7.95;5.22;;;25.90;99.90;;;;;;5095256;27;20207;-35
2023/05/26 11:06:35;;;;;;;7.60;5.15;;;26.10;99.90;;;;;;5119353;27;20180;-35
2023/05/26 11:09:10;;;;;;;7.47;5.30;;;26.30;99.90;;;;;;5103146;27;20209;-34
2023/05/26 11:11:38;;;;;;;9.68;5.35;;;26.10;99.90;;;;;;5105498;27;20211;-32
2023/05/26 11:14:09;;;;;;;7.80;5.13;;;26.10;99.90;;;;;;5124324;27;20209;-32
2023/05/26 11:16:38;;;;;;;5.90;5.00;;;26.20;99.90;;;;;;5106562;27;20176;-35
2023/05/26 11:19:06;;;;;;;7.47;5.00;;;26.40;99.90;;;;;;5097846;27;20262;-33
2023/05/26 11:21:34;;;;;;;9.20;5.35;;;26.50;99.90;;;;;;5120555;27;20171;-39
2023/05/26 11:24:05;;;;;;;8.70;4.95;;;26.60;99.90;;;;;;5121181;27;20226;-33
2023/05/26 11:26:32;;;;;;;8.15;5.63;;;26.80;99.90;;;;;;5115951;27;20287;-33
2023/05/26 11:29:04;;;;;;;7.50;4.70;;;26.70;99.90;;;;;;5099773;28;20183;-35
2023/05/26 11:31:32;;;;;;;6.53;5.25;;;26.90;99.90;;;;;;5101273;27;20215;-35
2023/05/26 11:33:59;;;;;;;8.52;5.30;;;27.10;99.90;;;;;;5084097;27;20215;-33
2023/05/26 11:36:26;;;;;;;6.03;4.93;;;26.60;99.90;;;;;;5084501;27;20183;-33
2023/05/26 11:38:58;;;;;;;6.72;4.95;;;26.90;99.90;;;;;;5128388;27;20171;-34
2023/05/26 11:41:25;;;;;;;8.25;4.90;;;26.90;99.90;;;;;;5102455;27;20206;-33
2023/05/26 11:43:58;;;;;;;6.38;4.80;;;27.10;99.90;;;;;;5098682;27;20216;-33
2023/05/26 11:46:28;;;;;;;6.15;5.15;;;27.20;99.90;;;;;;5098972;27;20210;-34
2023/05/26 11:48:56;;;;;;;6.15;4.80;;;27.40;99.90;;;;;;5108205;27;20175;-34
2023/05/26 11:51:26;;;;;;;7.63;5.15;;;27.60;99.90;;;;;;5099073;28;20200;-32
2023/05/26 11:53:54;;;;;;;7.75;5.38;;;27.70;99.90;;;;;;5087184;27;20199;-34
2023/05/26 11:56:21;;;;;;;6.32;5.05;;;27.90;99.90;;;;;;5083042;27;20232;-32
2023/05/26 11:58:54;;;;;;;6.93;5.45;;;27.90;99.90;;;;;;5093311;27;20183;-33
2023/05/26 12:01:25;;;;;;;8.80;5.70;;;28.00;99.90;;;;;;5090729;27;20199;-33
2023/05/26 12:03:52;;;;;;;7.25;5.68;;;28.10;99.90;;;;;;5094167;27;20344;-32
2023/05/26 12:06:20;;;;;;;9.05;6.22;;;28.10;99.90;;;;;;5085920;27;20184;-33
2023/05/26 12:08:54;;;;;;;8.20;6.10;;;27.80;99.90;;;;;;5097028;27;20257;-32
2023/05/26 12:11:23;;;;;;;8.40;5.70;;;27.60;99.90;;;;;;5126343;27;20310;-35
2023/05/26 12:14:03;;;;;;;7.55;5.65;;;27.70;99.90;;;;;;5085407;27;20268;-33
2023/05/26 12:16:35;;;;;;;8.07;5.85;;;27.90;99.90;;;;;;5124282;27;20235;-33
2023/05/26 12:19:07;;;;;;;9.75;6.28;;;27.20;99.90;;;;;;5130252;27;20182;-36
2023/05/26 12:21:44;;;;;;;7.22;5.93;;;27.40;99.90;;;;;;5116760;27;20188;-32
2023/05/26 12:24:27;;;;;;;9.15;6.32;;;27.20;99.90;;;;;;5115541;27;20243;-34
2023/05/26 12:26:53;;;;;;;8.35;5.32;;;27.30;99.90;;;;;;5115792;27;20179;-36
2023/05/26 12:29:19;;;;;;;7.65;5.50;;;27.20;99.90;;;;;;5092196;27;20236;-33
2023/05/26 12:31:48;;;;;;;7.82;5.68;;;27.30;99.90;;;;;;5104237;28;20232;-33
2023/05/26 12:34:25;;;;;;;7.60;6.07;;;27.30;99.90;;;;;;5087364;28;20208;-36
2023/05/26 12:36:52;;;;;;;8.98;5.95;;;27.20;99.90;;;;;;5112863;27;20175;-33
2023/05/26 12:39:19;;;;;;;8.50;6.25;;;27.10;99.90;;;;;;5131568;27;20206;-33
2023/05/26 12:41:46;;;;;;;9.27;6.30;;;27.20;99.90;;;;;;5096826;27;20184;-33
2023/05/26 12:44:12;;;;;;;11.00;5.95;;;27.40;99.90;;;;;;5112078;28;20199;-33
2023/05/26 12:46:40;;;;;;;9.35;6.00;;;27.50;99.90;;;;;;5106588;27;20263;-32
2023/05/26 12:49:10;;;;;;;9.57;6.20;;;27.60;99.90;;;;;;5120099;27;20174;-32
2023/05/26 12:51:39;;;;;;;8.27;6.07;;;27.00;99.90;;;;;;5131089;27;20175;-34